createdAt,value
2018-09-06T00:00:34.377Z,86.03
2018-09-06T00:01:40.517Z,85.48
2018-09-06T00:02:47.397Z,86.32
2018-09-06T00:03:53.963Z,86.83
2018-09-06T00:05:00.538Z,86.64
2018-09-06T00:06:07.115Z,86.33
2018-09-06T00:07:12.669Z,86.53
2018-09-06T00:08:19.402Z,86.23
2018-09-06T00:09:25.954Z,86.11
2018-09-06T00:10:32.443Z,86.15
2018-09-06T00:11:38.830Z,86.07
2018-09-06T00:12:45.241Z,85.80
2018-09-06T00:13:52.150Z,86.60
2018-09-06T00:14:59.399Z,86.54
2018-09-06T00:16:05.918Z,88.10
2018-09-06T00:17:12.066Z,88.27
2018-09-06T00:18:18.568Z,87.49
2018-09-06T00:19:25.295Z,86.55
2018-09-06T00:20:32.281Z,87.37
2018-09-06T00:21:38.658Z,87.04
2018-09-06T00:22:44.832Z,86.73
2018-09-06T00:23:50.897Z,86.52
2018-09-06T00:24:57.243Z,86.46
2018-09-06T00:26:03.661Z,88.12
2018-09-06T00:27:10.385Z,88.87
2018-09-06T00:28:17.008Z,88.65
2018-09-06T00:29:23.030Z,88.04
2018-09-06T00:30:29.436Z,88.40
2018-09-06T00:31:38.317Z,88.29
2018-09-06T00:32:44.729Z,89.21
2018-09-06T00:33:51.021Z,88.92
2018-09-06T00:34:57.333Z,88.94
2018-09-06T00:36:04.076Z,88.97
2018-09-06T00:37:10.893Z,89.09
2018-09-06T00:38:17.286Z,88.76
2018-09-06T00:39:23.653Z,90.13
2018-09-06T00:40:30.670Z,90.92
2018-09-06T00:41:37.129Z,91.17
2018-09-06T00:42:44.106Z,91.77
2018-09-06T00:43:50.544Z,93.52
2018-09-06T00:44:56.923Z,93.90
2018-09-06T00:46:02.777Z,92.22
2018-09-06T00:47:09.444Z,91.29
2018-09-06T00:48:15.632Z,91.52
2018-09-06T00:49:22.059Z,92.35
2018-09-06T00:50:28.120Z,93.72
2018-09-06T00:51:34.792Z,92.89
2018-09-06T00:52:41.310Z,91.18
2018-09-06T00:53:47.737Z,92.38
2018-09-06T00:54:53.755Z,91.89
2018-09-06T00:56:00.453Z,90.14
2018-09-06T00:57:06.131Z,90.63
2018-09-06T00:58:12.558Z,90.67
2018-09-06T00:59:18.752Z,91.86
2018-09-06T01:00:24.874Z,92.90
2018-09-06T01:01:29.355Z,93.96
2018-09-06T01:02:34.638Z,94.38
2018-09-06T01:03:41.991Z,95.46
2018-09-06T01:04:47.980Z,95.83
2018-09-06T01:05:54.764Z,94.29
2018-09-06T01:07:01.211Z,94.40
2018-09-06T01:08:08.516Z,93.15
2018-09-06T01:09:14.659Z,92.16
2018-09-06T01:10:20.894Z,92.13
2018-09-06T01:11:27.385Z,93.04
2018-09-06T01:12:33.676Z,92.48
2018-09-06T01:13:39.706Z,92.36
2018-09-06T01:14:46.084Z,93.77
2018-09-06T01:15:52.191Z,95.04
2018-09-06T01:16:58.518Z,95.04
2018-09-06T01:18:04.970Z,94.19
2018-09-06T01:19:11.339Z,93.87
2018-09-06T01:20:17.491Z,94.00
2018-09-06T01:21:23.660Z,93.59
2018-09-06T01:22:30.103Z,94.56
2018-09-06T01:23:36.188Z,95.69
2018-09-06T01:24:42.571Z,95.67
2018-09-06T01:25:49.749Z,94.94
2018-09-06T01:26:56.013Z,95.08
2018-09-06T01:28:02.328Z,95.93
2018-09-06T01:29:08.627Z,96.66
2018-09-06T01:30:15.079Z,95.73
2018-09-06T01:31:22.015Z,95.31
2018-09-06T01:32:27.873Z,94.89
2018-09-06T01:33:33.435Z,94.71
2018-09-06T01:34:39.734Z,94.42
2018-09-06T01:35:46.004Z,94.96
2018-09-06T01:36:52.459Z,94.33
2018-09-06T01:37:59.060Z,94.21
2018-09-06T01:39:04.981Z,94.32
2018-09-06T01:40:11.252Z,93.87
2018-09-06T01:41:17.697Z,93.79
2018-09-06T01:42:24.105Z,94.00
2018-09-06T01:43:31.421Z,93.66
2018-09-06T01:44:37.084Z,94.06
2018-09-06T01:45:42.940Z,95.81
2018-09-06T01:46:49.076Z,95.91
2018-09-06T01:47:55.761Z,95.42
2018-09-06T01:49:02.048Z,96.25
2018-09-06T01:50:07.773Z,97.19
2018-09-06T01:51:14.621Z,97.02
2018-09-06T01:52:21.424Z,96.43
2018-09-06T01:53:27.842Z,96.12
2018-09-06T01:54:34.376Z,95.80
2018-09-06T01:55:40.891Z,95.46
2018-09-06T01:56:48.598Z,95.16
2018-09-06T01:57:55.154Z,94.79
2018-09-06T01:59:01.491Z,95.13
2018-09-06T02:00:07.369Z,96.09
2018-09-06T02:01:13.796Z,96.83
2018-09-06T02:02:20.405Z,97.00
2018-09-06T02:03:26.471Z,96.24
2018-09-06T02:04:32.923Z,95.70
2018-09-06T02:05:39.128Z,95.33
2018-09-06T02:06:45.649Z,94.50
2018-09-06T02:07:51.761Z,94.90
2018-09-06T02:08:57.897Z,95.46
2018-09-06T02:10:03.669Z,95.85
2018-09-06T02:11:09.772Z,95.44
2018-09-06T02:12:15.979Z,95.75
2018-09-06T02:13:22.180Z,96.28
2018-09-06T02:14:28.591Z,95.86
2018-09-06T02:15:35.403Z,95.18
2018-09-06T02:16:41.736Z,95.77
2018-09-06T02:17:48.417Z,95.36
2018-09-06T02:18:55.285Z,95.44
2018-09-06T02:20:01.565Z,95.04
2018-09-06T02:21:07.584Z,95.37
2018-09-06T02:22:14.003Z,95.64
2018-09-06T02:23:20.418Z,94.88
2018-09-06T02:24:26.620Z,94.73
2018-09-06T02:25:33.496Z,94.44
2018-09-06T02:26:39.889Z,94.84
2018-09-06T02:27:46.274Z,95.25
2018-09-06T02:28:52.677Z,96.12
2018-09-06T02:29:59.096Z,96.22
2018-09-06T02:31:06.030Z,95.75
2018-09-06T02:32:12.416Z,95.10
2018-09-06T02:33:18.871Z,95.52
2018-09-06T02:34:25.669Z,96.03
2018-09-06T02:35:32.106Z,97.37
2018-09-06T02:36:38.871Z,97.46
2018-09-06T02:37:45.528Z,96.69
2018-09-06T02:38:51.973Z,97.07
2018-09-06T02:39:58.676Z,97.74
2018-09-06T02:41:05.132Z,97.70
2018-09-06T02:42:11.625Z,97.16
2018-09-06T02:43:18.346Z,96.84
2018-09-06T02:44:24.899Z,96.55
2018-09-06T02:45:31.274Z,96.69
2018-09-06T02:46:37.500Z,96.34
2018-09-06T02:47:43.599Z,96.11
2018-09-06T02:48:49.791Z,96.17
2018-09-06T02:49:56.579Z,96.08
2018-09-06T02:51:19.827Z,96.20
2018-09-06T02:52:26.003Z,96.12
2018-09-06T02:53:32.502Z,96.27
2018-09-06T02:54:39.171Z,96.58
2018-09-06T02:55:45.220Z,96.86
2018-09-06T02:56:51.701Z,96.36
2018-09-06T02:57:57.900Z,96.27
2018-09-06T02:59:03.931Z,96.46
2018-09-06T03:00:10.424Z,97.69
2018-09-06T03:01:16.513Z,97.91
2018-09-06T03:02:22.203Z,97.17
2018-09-06T03:03:29.290Z,96.08
2018-09-06T03:04:35.683Z,96.01
2018-09-06T03:05:42.187Z,96.12
2018-09-06T03:06:48.918Z,96.37
2018-09-06T03:07:55.735Z,96.22
2018-09-06T03:09:02.145Z,95.85
2018-09-06T03:10:08.120Z,96.25
2018-09-06T03:11:14.430Z,95.83
2018-09-06T03:12:20.716Z,96.48
2018-09-06T03:13:27.292Z,97.41
2018-09-06T03:14:33.672Z,96.70
2018-09-06T03:15:40.268Z,96.45
2018-09-06T03:16:46.743Z,96.14
2018-09-06T03:17:52.893Z,96.05
2018-09-06T03:18:59.178Z,96.03
2018-09-06T03:20:05.007Z,95.71
2018-09-06T03:21:11.680Z,95.65
2018-09-06T03:22:17.924Z,95.95
2018-09-06T03:23:24.612Z,95.85
2018-09-06T03:24:30.923Z,96.07
2018-09-06T03:25:36.692Z,96.19
2018-09-06T03:26:42.829Z,95.88
2018-09-06T03:27:49.246Z,95.74
2018-09-06T03:28:55.843Z,95.50
2018-09-06T03:30:02.244Z,95.47
2018-09-06T03:31:08.591Z,95.25
2018-09-06T03:32:14.895Z,95.31
2018-09-06T03:33:21.161Z,95.16
2018-09-06T03:34:27.481Z,96.31
2018-09-06T03:35:34.044Z,95.53
2018-09-06T03:36:40.385Z,95.60
2018-09-06T03:37:46.550Z,95.52
2018-09-06T03:38:52.616Z,95.27
2018-09-06T03:39:59.091Z,95.08
2018-09-06T03:41:06.136Z,94.77
2018-09-06T03:42:12.515Z,95.36
2018-09-06T03:43:18.753Z,95.39
2018-09-06T03:44:25.633Z,95.57
2018-09-06T03:45:32.798Z,96.34
2018-09-06T03:46:39.519Z,96.24
2018-09-06T03:47:46.234Z,96.10
2018-09-06T03:48:52.683Z,95.36
2018-09-06T03:49:59.380Z,94.99
2018-09-06T03:51:05.933Z,95.06
2018-09-06T03:52:12.186Z,95.61
2018-09-06T03:53:18.598Z,95.85
2018-09-06T03:54:25.266Z,95.71
2018-09-06T03:55:31.624Z,95.42
2018-09-06T03:56:38.042Z,95.59
2018-09-06T03:57:44.919Z,96.26
2018-09-06T03:58:51.601Z,96.51
2018-09-06T03:59:57.839Z,96.22
2018-09-06T04:01:04.341Z,96.16
2018-09-06T04:02:10.937Z,96.34
2018-09-06T04:03:17.340Z,96.06
2018-09-06T04:04:23.796Z,95.94
2018-09-06T04:05:30.210Z,97.06
2018-09-06T04:06:36.630Z,97.37
2018-09-06T04:07:43.041Z,97.21
2018-09-06T04:08:49.672Z,96.54
2018-09-06T04:09:55.976Z,96.46
2018-09-06T04:11:02.590Z,96.72
2018-09-06T04:12:09.233Z,96.33
2018-09-06T04:13:15.606Z,96.26
2018-09-06T04:14:21.891Z,96.29
2018-09-06T04:15:28.318Z,96.33
2018-09-06T04:16:35.100Z,96.41
2018-09-06T04:17:41.552Z,96.82
2018-09-06T04:18:47.904Z,96.79
2018-09-06T04:19:54.717Z,96.40
2018-09-06T04:21:01.004Z,96.64
2018-09-06T04:22:07.338Z,96.83
2018-09-06T04:23:13.528Z,96.69
2018-09-06T04:24:20.429Z,96.61
2018-09-06T04:25:27.066Z,96.86
2018-09-06T04:26:33.492Z,97.12
2018-09-06T04:27:40.024Z,97.13
2018-09-06T04:28:46.411Z,97.28
2018-09-06T04:29:52.954Z,97.44
2018-09-06T04:30:59.370Z,98.14
2018-09-06T04:32:06.275Z,99.13
2018-09-06T04:33:13.171Z,99.43
2018-09-06T04:34:19.634Z,98.98
2018-09-06T04:35:26.041Z,98.42
2018-09-06T04:36:33.384Z,97.76
2018-09-06T04:37:40.027Z,98.03
2018-09-06T04:38:46.237Z,98.05
2018-09-06T04:39:52.560Z,98.22
2018-09-06T04:40:59.559Z,97.94
2018-09-06T04:42:05.968Z,97.70
2018-09-06T04:43:12.459Z,97.64
2018-09-06T04:44:18.627Z,97.94
2018-09-06T04:45:25.519Z,97.96
2018-09-06T04:46:32.233Z,97.77
2018-09-06T04:47:38.480Z,97.51
2018-09-06T04:48:45.594Z,97.86
2018-09-06T04:49:52.069Z,97.84
2018-09-06T04:50:58.408Z,97.53
2018-09-06T04:52:04.716Z,97.72
2018-09-06T04:53:11.160Z,97.57
2018-09-06T04:54:17.650Z,98.04
2018-09-06T04:55:24.321Z,97.62
2018-09-06T04:56:31.411Z,97.34
2018-09-06T04:57:38.203Z,97.62
2018-09-06T04:58:44.510Z,97.17
2018-09-06T04:59:50.921Z,97.34
2018-09-06T05:00:57.377Z,97.27
2018-09-06T05:02:03.757Z,96.98
2018-09-06T05:03:10.226Z,97.12
2018-09-06T05:04:16.613Z,97.45
2018-09-06T05:05:23.222Z,97.22
2018-09-06T05:06:29.538Z,97.12
2018-09-06T05:07:35.952Z,96.71
2018-09-06T05:08:42.843Z,98.07
2018-09-06T05:09:49.301Z,98.55
2018-09-06T05:10:56.218Z,98.55
2018-09-06T05:12:02.606Z,99.71
2018-09-06T05:13:09.048Z,100.00
2018-09-06T05:14:15.484Z,100.00
2018-09-06T05:15:21.411Z,100.00
2018-09-06T05:16:27.855Z,99.38
2018-09-06T05:17:34.186Z,97.78
2018-09-06T05:18:40.601Z,96.98
2018-09-06T05:19:47.107Z,96.96
2018-09-06T05:20:53.276Z,98.11
2018-09-06T05:21:59.839Z,98.75
2018-09-06T05:23:06.469Z,99.22
2018-09-06T05:24:12.846Z,99.28
2018-09-06T05:25:18.934Z,99.69
2018-09-06T05:26:25.387Z,99.91
2018-09-06T05:27:31.789Z,99.92
2018-09-06T05:28:38.239Z,100.00
2018-09-06T05:29:44.617Z,99.80
2018-09-06T05:30:50.978Z,99.78
2018-09-06T05:31:57.578Z,99.73
2018-09-06T05:33:03.980Z,100.00
2018-09-06T05:34:10.363Z,100.00
2018-09-06T05:35:16.845Z,100.00
2018-09-06T05:36:23.472Z,100.00
2018-09-06T05:37:30.030Z,100.00
2018-09-06T05:38:36.464Z,100.00
2018-09-06T05:39:42.794Z,100.00
2018-09-06T05:40:49.183Z,100.00
2018-09-06T05:41:55.596Z,100.00
2018-09-06T05:43:02.038Z,100.00
2018-09-06T05:44:08.318Z,100.00
2018-09-06T05:45:14.627Z,100.00
2018-09-06T05:46:20.809Z,100.00
2018-09-06T05:47:27.484Z,100.00
2018-09-06T05:48:33.881Z,100.00
2018-09-06T05:49:40.247Z,100.00
2018-09-06T05:50:46.599Z,100.00
2018-09-06T05:51:52.935Z,99.61
2018-09-06T05:52:59.352Z,99.68
2018-09-06T05:54:05.600Z,99.52
2018-09-06T05:55:11.939Z,99.86
2018-09-06T05:56:18.339Z,99.47
2018-09-06T05:57:26.992Z,98.84
2018-09-06T05:58:33.008Z,98.89
2018-09-06T05:59:39.337Z,99.13
2018-09-06T06:00:45.634Z,98.18
2018-09-06T06:01:51.788Z,98.77
2018-09-06T06:02:57.883Z,97.96
2018-09-06T06:04:04.276Z,97.63
2018-09-06T06:05:10.760Z,97.58
2018-09-06T06:06:17.413Z,97.16
2018-09-06T06:07:23.165Z,95.83
2018-09-06T06:08:37.873Z,96.40
2018-09-06T06:09:44.146Z,96.09
2018-09-06T06:10:50.213Z,96.15
2018-09-06T06:11:56.752Z,95.98
2018-09-06T06:13:03.302Z,95.71
2018-09-06T06:14:09.697Z,95.77
2018-09-06T06:15:15.808Z,95.67
2018-09-06T06:16:22.200Z,95.51
2018-09-06T06:17:28.308Z,95.12
2018-09-06T06:18:34.685Z,95.60
2018-09-06T06:19:40.864Z,95.18
2018-09-06T06:20:46.927Z,94.84
2018-09-06T06:21:53.391Z,94.33
2018-09-06T06:22:59.777Z,94.91
2018-09-06T06:24:05.493Z,94.57
2018-09-06T06:25:11.641Z,94.30
2018-09-06T06:26:18.123Z,93.56
2018-09-06T06:27:24.540Z,93.45
2018-09-06T06:28:30.965Z,92.79
2018-09-06T06:29:37.133Z,92.96
2018-09-06T06:30:43.231Z,93.71
2018-09-06T06:31:49.556Z,92.02
2018-09-06T06:32:55.522Z,91.83
2018-09-06T06:34:02.021Z,91.37
2018-09-06T06:35:08.701Z,91.42
2018-09-06T06:36:15.007Z,90.23
2018-09-06T06:37:21.370Z,90.38
2018-09-06T06:38:27.396Z,90.06
2018-09-06T06:39:33.853Z,90.44
2018-09-06T06:40:40.172Z,90.93
2018-09-06T06:41:46.469Z,90.27
2018-09-06T06:42:52.784Z,90.44
2018-09-06T06:43:59.125Z,89.64
2018-09-06T06:45:04.505Z,89.03
2018-09-06T06:46:11.011Z,88.86
2018-09-06T06:47:17.416Z,89.00
2018-09-06T06:48:23.759Z,88.80
2018-09-06T06:49:30.167Z,88.15
2018-09-06T06:50:36.340Z,88.07
2018-09-06T06:51:42.791Z,88.70
2018-09-06T06:52:49.174Z,88.51
2018-09-06T06:53:55.382Z,87.42
2018-09-06T06:55:01.839Z,89.23
2018-09-06T06:56:08.407Z,87.93
2018-09-06T06:57:14.739Z,86.54
2018-09-06T06:58:21.174Z,86.56
2018-09-06T06:59:27.557Z,85.20
2018-09-06T07:00:33.777Z,85.48
2018-09-06T07:01:40.092Z,84.61
2018-09-06T07:02:46.382Z,84.36
2018-09-06T07:03:52.499Z,84.25
2018-09-06T07:04:58.913Z,84.35
2018-09-06T07:06:05.333Z,84.37
2018-09-06T07:07:11.702Z,84.80
2018-09-06T07:08:18.256Z,84.54
2018-09-06T07:09:24.688Z,83.72
2018-09-06T07:10:31.010Z,82.04
2018-09-06T07:11:37.282Z,82.64
2018-09-06T07:12:43.882Z,83.11
2018-09-06T07:13:50.351Z,82.87
2018-09-06T07:14:56.653Z,82.61
2018-09-06T07:16:03.273Z,83.00
2018-09-06T07:17:09.672Z,83.08
2018-09-06T07:18:15.935Z,81.74
2018-09-06T07:19:22.412Z,82.19
2018-09-06T07:20:28.733Z,83.27
2018-09-06T07:21:34.815Z,83.34
2018-09-06T07:22:41.276Z,83.14
2018-09-06T07:23:47.673Z,82.46
2018-09-06T07:24:53.986Z,82.55
2018-09-06T07:26:00.282Z,82.14
2018-09-06T07:27:06.335Z,81.48
2018-09-06T07:28:12.745Z,79.83
2018-09-06T07:29:18.954Z,80.05
2018-09-06T07:30:25.388Z,81.22
2018-09-06T07:31:31.938Z,81.26
2018-09-06T07:32:38.320Z,82.11
2018-09-06T07:33:44.757Z,80.76
2018-09-06T07:34:51.069Z,81.12
2018-09-06T07:35:57.490Z,81.60
2018-09-06T07:37:04.408Z,81.46
2018-09-06T07:38:10.822Z,81.34
2018-09-06T07:39:17.256Z,80.60
2018-09-06T07:40:23.582Z,80.15
2018-09-06T07:41:29.571Z,80.36
2018-09-06T07:42:36.197Z,78.73
2018-09-06T07:43:42.613Z,77.81
2018-09-06T07:44:48.926Z,77.67
2018-09-06T07:45:55.222Z,76.15
2018-09-06T07:47:01.540Z,76.90
2018-09-06T07:48:07.840Z,76.99
2018-09-06T07:49:14.305Z,75.49
2018-09-06T07:50:20.708Z,74.66
2018-09-06T07:51:27.165Z,76.66
2018-09-06T07:52:33.700Z,76.02
2018-09-06T07:53:40.076Z,75.43
2018-09-06T07:54:46.531Z,75.82
2018-09-06T07:55:52.849Z,74.83
2018-09-06T07:56:59.263Z,75.02
2018-09-06T07:58:05.352Z,74.50
2018-09-06T07:59:11.451Z,74.72
2018-09-06T08:00:18.093Z,73.33
2018-09-06T08:01:24.510Z,72.75
2018-09-06T08:02:30.928Z,73.02
2018-09-06T08:03:37.107Z,74.03
2018-09-06T08:04:43.691Z,72.75
2018-09-06T08:05:49.997Z,71.58
2018-09-06T08:06:55.944Z,72.37
2018-09-06T08:08:02.413Z,72.37
2018-09-06T08:09:08.689Z,71.96
2018-09-06T08:10:14.887Z,71.68
2018-09-06T08:11:21.888Z,71.94
2018-09-06T08:12:28.146Z,71.57
2018-09-06T08:13:34.453Z,70.06
2018-09-06T08:14:41.575Z,70.61
2018-09-06T08:15:48.001Z,68.90
2018-09-06T08:16:54.857Z,68.75
2018-09-06T08:18:01.228Z,67.47
2018-09-06T08:19:07.326Z,68.33
2018-09-06T08:20:13.562Z,69.54
2018-09-06T08:21:20.008Z,69.74
2018-09-06T08:22:26.432Z,68.66
2018-09-06T08:23:32.100Z,68.52
2018-09-06T08:24:39.252Z,69.40
2018-09-06T08:25:45.637Z,69.88
2018-09-06T08:26:51.787Z,68.07
2018-09-06T08:27:58.248Z,66.80
2018-09-06T08:29:03.987Z,66.58
2018-09-06T08:30:09.974Z,67.13
2018-09-06T08:31:16.434Z,67.21
2018-09-06T08:32:22.804Z,67.03
2018-09-06T08:33:29.136Z,65.86
2018-09-06T08:34:35.544Z,65.75
2018-09-06T08:35:41.941Z,66.15
2018-09-06T08:36:48.359Z,65.24
2018-09-06T08:37:54.683Z,64.82
2018-09-06T08:39:01.074Z,65.81
2018-09-06T08:40:07.003Z,66.50
2018-09-06T08:41:13.428Z,65.63
2018-09-06T08:42:19.442Z,65.44
2018-09-06T08:43:25.528Z,65.65
2018-09-06T08:44:31.938Z,64.19
2018-09-06T08:45:38.355Z,63.92
2018-09-06T08:46:44.632Z,62.68
2018-09-06T08:47:50.722Z,63.29
2018-09-06T08:48:56.702Z,63.20
2018-09-06T08:50:03.204Z,63.74
2018-09-06T08:51:09.285Z,63.02
2018-09-06T08:52:15.880Z,63.38
2018-09-06T08:53:22.154Z,63.96
2018-09-06T08:54:28.651Z,64.11
2018-09-06T08:55:34.817Z,63.58
2018-09-06T08:56:41.141Z,63.78
2018-09-06T08:57:47.969Z,61.99
2018-09-06T08:58:54.379Z,62.58
2018-09-06T09:00:00.159Z,64.25
2018-09-06T09:01:06.892Z,62.56
2018-09-06T09:02:12.900Z,61.81
2018-09-06T09:03:19.491Z,60.19
2018-09-06T09:04:26.074Z,60.47
2018-09-06T09:05:32.180Z,60.20
2018-09-06T09:06:38.289Z,59.84
2018-09-06T09:07:44.800Z,60.04
2018-09-06T09:08:51.223Z,60.51
2018-09-06T09:09:57.709Z,59.71
2018-09-06T09:11:04.839Z,59.22
2018-09-06T09:12:11.282Z,60.71
2018-09-06T09:13:17.406Z,60.77
2018-09-06T09:14:23.981Z,60.88
2018-09-06T09:15:30.424Z,60.58
2018-09-06T09:16:35.897Z,59.45
2018-09-06T09:17:42.000Z,59.34
2018-09-06T09:18:48.409Z,60.11
2018-09-06T09:19:54.824Z,59.64
2018-09-06T09:21:01.263Z,59.39
2018-09-06T09:22:07.726Z,57.89
2018-09-06T09:23:13.895Z,57.30
2018-09-06T09:24:20.020Z,56.82
2018-09-06T09:25:26.071Z,57.27
2018-09-06T09:26:32.841Z,57.39
2018-09-06T09:27:38.639Z,58.45
2018-09-06T09:28:44.433Z,58.80
2018-09-06T09:29:50.915Z,57.13
2018-09-06T09:30:57.288Z,56.10
2018-09-06T09:32:03.650Z,56.30
2018-09-06T09:33:09.737Z,55.47
2018-09-06T09:34:16.147Z,55.52
2018-09-06T09:35:22.132Z,55.45
2018-09-06T09:36:27.839Z,55.46
2018-09-06T09:37:34.006Z,54.82
2018-09-06T09:38:39.953Z,55.74
2018-09-06T09:39:46.599Z,55.27
2018-09-06T09:40:52.642Z,56.09
2018-09-06T09:41:58.638Z,55.77
2018-09-06T09:43:05.014Z,55.70
2018-09-06T09:44:11.334Z,55.76
2018-09-06T09:45:17.761Z,54.65
2018-09-06T09:48:33.760Z,54.80
2018-09-06T09:49:40.224Z,56.31
2018-09-06T09:51:51.903Z,54.74
2018-09-06T09:52:58.217Z,54.48
2018-09-06T09:54:04.185Z,53.07
2018-09-06T09:55:10.601Z,54.02
2018-09-06T09:56:16.209Z,53.32
2018-09-06T09:57:22.574Z,53.43
2018-09-06T09:58:28.981Z,51.67
2018-09-06T09:59:35.287Z,51.45
2018-09-06T10:00:41.643Z,51.90
2018-09-06T10:01:47.814Z,51.36
2018-09-06T10:02:53.988Z,52.05
2018-09-06T10:05:35.264Z,52.71
2018-09-06T10:06:41.109Z,52.82
2018-09-06T10:07:53.000Z,52.24
2018-09-06T10:08:59.233Z,51.70
2018-09-06T10:10:04.731Z,51.21
2018-09-06T10:11:10.541Z,51.24
2018-09-06T10:12:16.752Z,50.46
2018-09-06T10:13:22.459Z,51.45
2018-09-06T10:14:28.853Z,51.42
2018-09-06T10:15:34.707Z,50.89
2018-09-06T10:16:40.683Z,51.52
2018-09-06T10:17:46.726Z,51.88
2018-09-06T10:18:52.657Z,52.50
2018-09-06T10:19:59.084Z,51.36
2018-09-06T10:21:05.382Z,50.91
2018-09-06T10:22:11.410Z,52.33
2018-09-06T10:23:17.793Z,51.20
2018-09-06T10:24:23.781Z,50.36
2018-09-06T10:25:29.773Z,49.59
2018-09-06T10:26:35.615Z,49.76
2018-09-06T10:27:41.669Z,49.32
2018-09-06T10:28:48.012Z,50.73
2018-09-06T10:29:53.917Z,49.98
2018-09-06T10:30:59.921Z,49.39
2018-09-06T10:32:06.223Z,49.66
2018-09-06T10:33:12.293Z,49.55
2018-09-06T10:34:18.972Z,50.36
2018-09-06T10:35:24.239Z,51.04
2018-09-06T10:36:30.394Z,48.80
2018-09-06T10:37:36.510Z,47.84
2018-09-06T10:38:42.553Z,48.95
2018-09-06T10:39:48.622Z,49.29
2018-09-06T10:40:54.908Z,47.62
2018-09-06T10:42:00.722Z,48.92
2018-09-06T10:43:06.168Z,49.07
2018-09-06T10:44:11.897Z,47.79
2018-09-06T10:45:17.942Z,48.20
2018-09-06T10:46:23.933Z,48.72
2018-09-06T10:47:29.725Z,49.79
2018-09-06T10:48:35.760Z,48.51
2018-09-06T10:49:40.949Z,49.42
2018-09-06T10:50:47.159Z,48.58
2018-09-06T10:51:52.868Z,47.86
2018-09-06T10:52:59.729Z,47.07
2018-09-06T10:54:05.560Z,48.47
2018-09-06T10:55:12.274Z,47.19
2018-09-06T10:56:18.135Z,46.77
2018-09-06T10:57:24.343Z,47.61
2018-09-06T10:58:29.652Z,46.17
2018-09-06T10:59:35.028Z,45.95
2018-09-06T11:00:41.177Z,45.90
2018-09-06T11:01:47.372Z,45.78
2018-09-06T11:02:52.881Z,45.50
2018-09-06T11:03:58.537Z,47.12
2018-09-06T11:05:04.269Z,47.30
2018-09-06T11:06:10.406Z,46.71
2018-09-06T11:07:16.100Z,46.09
2018-09-06T11:08:21.887Z,44.61
2018-09-06T11:09:27.536Z,44.51
2018-09-06T11:10:33.378Z,45.11
2018-09-06T11:11:39.506Z,44.89
2018-09-06T11:12:45.539Z,45.81
2018-09-06T11:13:51.528Z,44.25
2018-09-06T11:14:57.304Z,43.41
2018-09-06T11:16:03.395Z,44.98
2018-09-06T11:17:09.547Z,43.00
2018-09-06T11:18:15.527Z,44.40
2018-09-06T11:19:21.609Z,44.32
2018-09-06T11:20:27.726Z,43.62
2018-09-06T11:21:34.297Z,44.05
2018-09-06T11:22:40.709Z,45.07
2018-09-06T11:23:47.015Z,44.79
2018-09-06T11:24:53.395Z,43.83
2018-09-06T11:25:59.191Z,43.67
2018-09-06T11:27:05.328Z,43.82
2018-09-06T11:28:11.369Z,44.13
2018-09-06T11:29:17.435Z,43.27
2018-09-06T11:30:22.851Z,44.12
2018-09-06T11:31:28.955Z,43.73
2018-09-06T11:32:34.619Z,42.86
2018-09-06T11:33:40.388Z,43.66
2018-09-06T11:34:46.542Z,44.98
2018-09-06T11:35:52.648Z,43.76
2018-09-06T11:36:58.729Z,44.45
2018-09-06T11:38:04.602Z,43.37
2018-09-06T11:39:10.805Z,44.61
2018-09-06T11:40:16.984Z,42.83
2018-09-06T11:41:22.971Z,43.39
2018-09-06T11:42:28.877Z,43.06
2018-09-06T11:43:34.509Z,43.17
2018-09-06T11:44:40.465Z,43.99
2018-09-06T11:45:46.629Z,43.97
2018-09-06T11:46:52.899Z,43.90
2018-09-06T11:47:58.893Z,44.24
2018-09-06T11:49:04.529Z,43.70
2018-09-06T11:50:10.611Z,43.60
2018-09-06T11:51:16.030Z,43.66
2018-09-06T11:52:21.581Z,43.78
2018-09-06T11:53:27.743Z,44.16
2018-09-06T11:54:33.937Z,43.41
2018-09-06T11:55:39.441Z,44.27
2018-09-06T11:56:45.525Z,44.51
2018-09-06T11:57:51.539Z,42.46
2018-09-06T11:58:58.316Z,43.27
2018-09-06T12:00:03.768Z,42.03
2018-09-06T12:01:09.257Z,42.42
2018-09-06T12:02:15.309Z,43.09
2018-09-06T12:03:21.575Z,42.12
2018-09-06T12:04:26.986Z,41.98
2018-09-06T12:05:32.920Z,42.71
2018-09-06T12:06:38.249Z,42.27
2018-09-06T12:07:43.649Z,40.98
2018-09-06T12:08:49.404Z,40.48
2018-09-06T12:09:55.155Z,41.08
2018-09-06T12:11:00.873Z,41.77
2018-09-06T12:12:06.926Z,41.09
2018-09-06T12:13:12.785Z,42.02
2018-09-06T12:14:18.759Z,41.85
2018-09-06T12:15:25.327Z,41.71
2018-09-06T12:16:37.388Z,43.89
2018-09-06T12:17:43.513Z,41.99
2018-09-06T12:18:49.221Z,41.27
2018-09-06T12:19:55.685Z,41.37
2018-09-06T12:21:01.498Z,40.93
2018-09-06T12:22:07.651Z,42.13
2018-09-06T12:23:14.121Z,42.63
2018-09-06T12:24:19.524Z,41.25
2018-09-06T12:25:25.721Z,40.85
2018-09-06T12:26:31.625Z,42.19
2018-09-06T12:27:37.767Z,41.78
2018-09-06T12:28:43.560Z,41.99
2018-09-06T12:29:48.994Z,41.71
2018-09-06T12:30:54.460Z,41.72
2018-09-06T12:32:00.632Z,42.15
2018-09-06T12:33:06.807Z,41.39
2018-09-06T12:34:12.619Z,42.80
2018-09-06T12:35:18.429Z,42.05
2018-09-06T12:36:24.662Z,40.54
2018-09-06T12:37:29.968Z,41.57
2018-09-06T12:38:35.738Z,41.34
2018-09-06T12:39:41.896Z,42.24
2018-09-06T12:40:47.864Z,42.61
2018-09-06T12:41:53.421Z,42.64
2018-09-06T12:42:59.225Z,44.09
2018-09-06T12:44:04.761Z,44.05
2018-09-06T12:45:10.790Z,42.59
2018-09-06T12:46:16.545Z,43.07
2018-09-06T12:47:22.694Z,42.72
2018-09-06T12:48:29.010Z,41.89
2018-09-06T12:49:36.721Z,42.71
2018-09-06T12:50:42.817Z,42.23
2018-09-06T12:51:48.614Z,41.30
2018-09-06T12:52:57.016Z,42.82
2018-09-06T12:54:04.667Z,40.64
2018-09-06T12:55:11.470Z,41.18
2018-09-06T12:56:18.111Z,40.89
2018-09-06T12:57:24.524Z,40.94
2018-09-06T12:58:31.448Z,40.29
2018-09-06T12:59:38.170Z,40.53
2018-09-06T13:00:44.499Z,41.76
2018-09-06T13:01:51.003Z,42.36
2018-09-06T13:02:57.516Z,39.78
2018-09-06T13:04:04.190Z,42.17
2018-09-06T13:05:10.325Z,39.29
2018-09-06T13:06:16.611Z,39.38
2018-09-06T13:07:24.325Z,40.80
2018-09-06T13:08:31.782Z,41.28
2018-09-06T13:09:39.244Z,41.56
2018-09-06T13:10:45.692Z,40.42
2018-09-06T13:11:52.384Z,40.73
2018-09-06T13:13:01.124Z,38.67
2018-09-06T13:14:10.968Z,38.27
2018-09-06T13:15:18.667Z,38.83
2018-09-06T13:16:26.096Z,39.87
2018-09-06T13:17:33.730Z,39.85
2018-09-06T13:18:40.408Z,39.35
2018-09-06T13:19:46.622Z,39.39
2018-09-06T13:20:52.360Z,40.21
2018-09-06T13:21:58.739Z,40.15
2018-09-06T13:23:05.667Z,40.77
2018-09-06T13:24:12.391Z,43.10
2018-09-06T13:25:18.360Z,41.43
2018-09-06T13:26:24.501Z,40.78
2018-09-06T13:27:31.161Z,39.37
2018-09-06T13:28:37.634Z,39.63
2018-09-06T13:29:44.459Z,39.55
2018-09-06T13:30:50.766Z,39.79
2018-09-06T13:31:57.389Z,40.61
2018-09-06T13:33:03.389Z,39.92
2018-09-06T13:34:09.812Z,38.99
2018-09-06T13:35:16.505Z,39.37
2018-09-06T13:36:23.355Z,38.66
2018-09-06T13:37:30.895Z,36.98
2018-09-06T13:38:37.516Z,37.76
2018-09-06T13:39:44.542Z,36.67
2018-09-06T13:40:51.059Z,36.53
2018-09-06T13:41:57.314Z,37.16
2018-09-06T13:43:04.909Z,37.87
2018-09-06T13:44:11.254Z,37.50
2018-09-06T13:45:17.314Z,37.31
2018-09-06T13:46:23.402Z,37.72
2018-09-06T13:47:29.525Z,38.56
2018-09-06T13:48:35.619Z,39.68
2018-09-06T13:49:41.655Z,38.56
2018-09-06T13:50:47.740Z,39.37
2018-09-06T13:51:53.552Z,40.24
2018-09-06T13:52:59.572Z,38.91
2018-09-06T13:54:05.294Z,39.22
2018-09-06T13:55:11.378Z,39.11
2018-09-06T13:56:17.207Z,39.44
2018-09-06T13:57:23.513Z,39.89
2018-09-06T13:58:29.400Z,39.33
2018-09-06T13:59:35.711Z,38.69
2018-09-06T14:00:41.669Z,39.28
2018-09-06T14:01:47.778Z,38.39
2018-09-06T14:02:53.905Z,38.58
2018-09-06T14:04:00.007Z,40.08
2018-09-06T14:05:05.702Z,40.15
2018-09-06T14:06:11.745Z,40.19
2018-09-06T14:07:17.961Z,39.60
2018-09-06T14:08:24.660Z,39.64
2018-09-06T14:09:30.878Z,40.01
2018-09-06T14:10:38.346Z,40.54
2018-09-06T14:11:45.141Z,40.71
2018-09-06T14:12:51.456Z,40.25
2018-09-06T14:13:57.865Z,39.96
2018-09-06T14:15:04.484Z,39.31
2018-09-06T14:16:10.802Z,39.20
2018-09-06T14:17:16.885Z,39.88
2018-09-06T14:18:24.240Z,40.31
2018-09-06T14:19:30.609Z,42.06